createdAt,value
2023-04-18T00:00:50.050Z,29.14
2023-04-18T00:01:50.197Z,28.42
2023-04-18T00:02:50.271Z,27.79
2023-04-18T00:03:50.460Z,27.77
2023-04-18T00:04:50.352Z,27.27
2023-04-18T00:05:50.219Z,27.37
2023-04-18T00:06:50.220Z,26.93
2023-04-18T00:07:50.235Z,26.92
2023-04-18T00:08:50.250Z,26.38
2023-04-18T00:09:50.243Z,26.50
2023-04-18T00:10:50.256Z,26.82
2023-04-18T00:12:45.290Z,0.50
2023-04-18T00:13:45.263Z,0.50
2023-04-18T00:14:45.249Z,0.50
2023-04-18T00:15:45.264Z,0.50
2023-04-18T00:16:45.300Z,0.50
2023-04-18T00:17:45.263Z,0.50
2023-04-18T00:18:45.210Z,0.52
2023-04-18T00:19:45.238Z,0.52
2023-04-18T00:20:45.232Z,0.51
2023-04-18T00:21:45.315Z,0.51
2023-04-18T00:22:45.208Z,0.51
2023-04-18T00:23:45.183Z,0.52
2023-04-18T00:24:45.173Z,0.51
2023-04-18T00:25:45.193Z,0.51
2023-04-18T00:26:45.200Z,0.52
2023-04-18T00:27:45.166Z,0.51
2023-04-18T00:28:45.142Z,0.51
2023-04-18T00:29:45.152Z,0.51
2023-04-18T00:30:45.191Z,0.52
2023-04-18T00:31:45.265Z,0.51
2023-04-18T00:32:45.146Z,0.51
2023-04-18T00:33:45.113Z,0.51
2023-04-18T00:34:45.125Z,0.52
2023-04-18T00:35:45.105Z,0.51
2023-04-18T00:36:45.091Z,0.51
2023-04-18T00:37:45.108Z,0.51
2023-04-18T00:38:45.110Z,0.51
2023-04-18T00:39:45.080Z,0.51
2023-04-18T00:40:45.080Z,0.51
2023-04-18T00:41:45.104Z,0.52
2023-04-18T00:42:45.110Z,0.53
2023-04-18T00:43:45.139Z,0.52
2023-04-18T00:44:45.175Z,0.53
2023-04-18T00:45:45.282Z,0.53
2023-04-18T00:46:45.301Z,0.52
2023-04-18T00:47:45.367Z,0.52
2023-04-18T00:48:45.380Z,0.53
2023-04-18T00:49:45.485Z,0.53
2023-04-18T00:50:45.498Z,0.53
2023-04-18T00:51:45.582Z,0.50
2023-04-18T00:52:45.654Z,0.54
2023-04-18T00:53:45.672Z,0.53
2023-04-18T00:54:45.759Z,0.52
2023-04-18T00:55:45.813Z,0.51
2023-04-18T00:56:45.859Z,0.51
2023-04-18T00:57:45.931Z,0.52
2023-04-18T00:58:45.963Z,0.52
2023-04-18T00:59:46.043Z,0.52
2023-04-18T01:00:46.094Z,0.53
2023-04-18T01:01:46.188Z,0.53
2023-04-18T01:02:46.350Z,0.53
2023-04-18T01:03:46.462Z,0.52
2023-04-18T01:04:46.348Z,0.53
2023-04-18T01:05:46.428Z,0.52
2023-04-18T01:06:46.460Z,0.51
2023-04-18T01:07:46.542Z,0.51
2023-04-18T01:08:46.572Z,0.51
2023-04-18T01:09:46.621Z,0.51
2023-04-18T01:10:46.692Z,0.53
2023-04-18T01:11:46.766Z,0.52
2023-04-18T01:12:46.846Z,0.52
2023-04-18T01:13:46.903Z,0.50
2023-04-18T01:14:46.978Z,0.51
2023-04-18T01:15:47.061Z,0.51
2023-04-18T01:16:47.082Z,0.50
2023-04-18T01:17:47.202Z,0.52
2023-04-18T01:18:47.244Z,0.51
2023-04-18T01:19:47.269Z,0.52
2023-04-18T01:20:47.337Z,0.53
2023-04-18T01:21:47.400Z,0.52
2023-04-18T01:22:47.446Z,0.52
2023-04-18T01:23:47.502Z,0.51
2023-04-18T01:24:47.589Z,0.53
2023-04-18T01:25:47.624Z,0.53
2023-04-18T01:26:47.758Z,0.52
2023-04-18T01:27:47.781Z,0.52
2023-04-18T01:28:47.839Z,0.51
2023-04-18T01:29:47.915Z,0.51
2023-04-18T01:30:47.966Z,0.52
2023-04-18T01:31:48.137Z,0.51
2023-04-18T01:32:48.133Z,0.51
2023-04-18T01:33:48.166Z,0.51
2023-04-18T01:34:48.231Z,0.52
2023-04-18T01:35:48.288Z,0.50
2023-04-18T01:36:48.345Z,0.51
2023-04-18T01:37:48.414Z,0.52
2023-04-18T01:38:48.459Z,0.53
2023-04-18T01:39:48.496Z,0.52
2023-04-18T01:40:48.580Z,0.51
2023-04-18T01:41:48.592Z,0.51
2023-04-18T01:42:48.668Z,0.53
2023-04-18T01:43:48.676Z,0.51
2023-04-18T01:44:48.726Z,0.50
2023-04-18T01:45:48.774Z,0.51
2023-04-18T01:46:48.871Z,0.50
2023-04-18T01:47:48.893Z,0.52
2023-04-18T01:48:48.938Z,0.53
2023-04-18T01:49:49.013Z,0.51
2023-04-18T01:50:49.072Z,0.51
2023-04-18T01:51:49.131Z,0.53
2023-04-18T01:52:49.176Z,0.53
2023-04-18T01:53:49.239Z,0.51
2023-04-18T01:54:49.317Z,0.52
2023-04-18T01:55:49.358Z,0.51
2023-04-18T01:56:49.429Z,0.50
2023-04-18T01:57:49.494Z,0.51
2023-04-18T01:58:49.551Z,0.51
2023-04-18T01:59:49.585Z,0.52
2023-04-18T02:00:49.678Z,0.52
2023-04-18T02:01:49.766Z,0.52
2023-04-18T02:02:49.866Z,0.51
2023-04-18T02:03:50.000Z,0.52
2023-04-18T02:04:49.895Z,0.52
2023-04-18T02:05:49.939Z,0.52
2023-04-18T02:06:49.986Z,0.52
2023-04-18T02:07:50.029Z,0.54
2023-04-18T02:08:50.050Z,0.54
2023-04-18T02:09:50.110Z,0.54
2023-04-18T02:10:50.151Z,0.52
2023-04-18T02:11:50.178Z,0.55
2023-04-18T02:12:50.243Z,0.54
2023-04-18T02:13:50.240Z,0.56
2023-04-18T02:14:50.311Z,0.55
2023-04-18T02:15:50.328Z,0.55
2023-04-18T02:16:50.509Z,0.56
2023-04-18T02:17:50.476Z,0.56
2023-04-18T02:18:50.445Z,0.54
2023-04-18T02:19:50.486Z,0.55
2023-04-18T02:20:50.562Z,0.54
2023-04-18T02:21:50.563Z,0.54
2023-04-18T02:22:50.626Z,0.54
2023-04-18T02:23:50.658Z,0.53
2023-04-18T02:24:50.754Z,0.53
2023-04-18T02:25:51.482Z,0.54
2023-04-18T02:26:50.778Z,0.52
2023-04-18T02:27:50.794Z,0.51
2023-04-18T02:28:50.828Z,0.52
2023-04-18T02:29:51.489Z,0.51
2023-04-18T02:30:50.889Z,0.52
2023-04-18T02:31:50.926Z,0.51
2023-04-18T02:32:50.968Z,0.51
2023-04-18T02:33:50.944Z,0.51
2023-04-18T02:34:50.984Z,0.52
2023-04-18T02:35:50.987Z,0.52
2023-04-18T02:36:50.992Z,0.51
2023-04-18T02:37:51.035Z,0.51
2023-04-18T02:38:51.022Z,0.52
2023-04-18T02:39:51.013Z,0.50
2023-04-18T02:40:51.049Z,0.50
2023-04-18T02:41:51.039Z,0.52
2023-04-18T02:42:51.045Z,0.52
2023-04-18T02:43:51.092Z,0.50
2023-04-18T02:44:51.074Z,0.51
2023-04-18T02:45:51.102Z,0.51
2023-04-18T02:46:51.068Z,0.51
2023-04-18T02:47:55.486Z,0.51
2023-04-18T02:48:52.101Z,0.51
2023-04-18T02:49:51.058Z,0.50
2023-04-18T02:50:51.051Z,0.50
2023-04-18T02:51:51.031Z,0.49
2023-04-18T02:52:51.056Z,0.49
2023-04-18T02:53:51.031Z,0.50
2023-04-18T02:54:51.021Z,0.51
2023-04-18T02:55:51.019Z,0.51
2023-04-18T02:56:51.030Z,0.51
2023-04-18T02:57:50.983Z,0.50
2023-04-18T02:58:50.972Z,0.50
2023-04-18T02:59:50.970Z,0.51
2023-04-18T03:00:50.991Z,0.52
2023-04-18T03:01:50.963Z,0.51
2023-04-18T03:02:51.082Z,0.52
2023-04-18T03:03:50.965Z,0.51
2023-04-18T03:04:51.049Z,0.50
2023-04-18T03:05:50.941Z,0.51
2023-04-18T03:06:50.941Z,0.51
2023-04-18T03:07:50.979Z,0.50
2023-04-18T03:08:50.941Z,0.52
2023-04-18T03:09:50.969Z,0.50
2023-04-18T03:10:51.052Z,0.51
2023-04-18T03:11:51.124Z,0.51
2023-04-18T03:12:51.094Z,0.51
2023-04-18T03:13:51.149Z,0.51
2023-04-18T03:14:51.183Z,0.51
2023-04-18T03:15:51.263Z,0.51
2023-04-18T03:16:53.090Z,0.51
2023-04-18T03:17:51.372Z,0.52
2023-04-18T03:18:51.235Z,0.52
2023-04-18T03:19:51.227Z,0.52
2023-04-18T03:20:51.219Z,0.52
2023-04-18T03:21:51.240Z,0.52
2023-04-18T03:22:51.247Z,0.51
2023-04-18T03:23:51.246Z,0.52
2023-04-18T03:24:51.212Z,0.52
2023-04-18T03:25:51.197Z,0.51
2023-04-18T03:26:51.199Z,0.51
2023-04-18T03:27:51.200Z,0.50
2023-04-18T03:28:51.175Z,0.51
2023-04-18T03:29:51.178Z,0.51
2023-04-18T03:30:51.200Z,0.51
2023-04-18T03:31:51.182Z,0.51
2023-04-18T03:32:51.245Z,0.51
2023-04-18T03:33:51.162Z,0.52
2023-04-18T03:34:51.137Z,0.52
2023-04-18T03:35:51.163Z,0.51
2023-04-18T03:36:51.136Z,0.51
2023-04-18T03:37:51.174Z,0.52
2023-04-18T03:38:51.120Z,0.51
2023-04-18T03:39:51.107Z,0.51
2023-04-18T03:40:51.096Z,0.50
2023-04-18T03:41:51.104Z,0.51
2023-04-18T03:42:51.127Z,0.51
2023-04-18T03:43:51.202Z,0.51
2023-04-18T03:44:51.258Z,0.50
2023-04-18T03:45:51.318Z,0.51
2023-04-18T03:46:51.330Z,0.51
2023-04-18T03:47:51.460Z,0.51
2023-04-18T03:48:51.449Z,0.51
2023-04-18T03:49:51.520Z,0.51
2023-04-18T03:50:51.586Z,0.51
2023-04-18T03:51:51.599Z,0.50
2023-04-18T03:52:51.687Z,0.51
2023-04-18T03:53:51.769Z,0.51
2023-04-18T03:54:51.803Z,0.52
2023-04-18T03:55:51.878Z,0.52
2023-04-18T03:56:51.916Z,0.52
2023-04-18T03:57:51.940Z,0.52
2023-04-18T03:58:52.022Z,0.52
2023-04-18T03:59:52.089Z,0.52
2023-04-18T04:00:52.124Z,0.52
2023-04-18T04:01:52.217Z,0.52
2023-04-18T04:02:52.455Z,0.52
2023-04-18T04:03:52.365Z,0.50
2023-04-18T04:04:52.404Z,0.50
2023-04-18T04:05:52.379Z,0.52
2023-04-18T04:06:52.407Z,0.53
2023-04-18T04:07:52.472Z,0.52
2023-04-18T04:08:52.526Z,0.52
2023-04-18T04:09:52.592Z,0.52
2023-04-18T04:10:52.636Z,0.51
2023-04-18T04:11:52.646Z,0.52
2023-04-18T04:12:52.724Z,0.52
2023-04-18T04:13:52.748Z,0.52
2023-04-18T04:14:52.797Z,0.51
2023-04-18T04:15:52.856Z,0.51
2023-04-18T04:16:52.964Z,0.52
2023-04-18T04:17:53.086Z,0.53
2023-04-18T04:18:53.009Z,0.51
2023-04-18T04:19:53.023Z,0.51
2023-04-18T04:20:53.074Z,0.52
2023-04-18T04:21:53.128Z,0.52
2023-04-18T04:22:53.194Z,0.52
2023-04-18T04:23:53.210Z,0.52
2023-04-18T04:24:53.254Z,0.53
2023-04-18T04:25:53.295Z,0.53
2023-04-18T04:26:53.318Z,0.53
2023-04-18T04:27:53.385Z,0.53
2023-04-18T04:28:53.416Z,0.53
2023-04-18T04:29:53.487Z,0.52
2023-04-18T04:30:53.525Z,0.53
2023-04-18T04:31:53.574Z,0.53
2023-04-18T04:32:53.730Z,0.54
2023-04-18T04:33:53.686Z,0.55
2023-04-18T04:34:53.705Z,0.54
2023-04-18T04:35:53.721Z,0.54
2023-04-18T04:36:53.803Z,0.55
2023-04-18T04:37:53.813Z,0.54
2023-04-18T04:38:53.858Z,0.53
2023-04-18T04:39:53.933Z,0.54
2023-04-18T04:40:53.964Z,0.55
2023-04-18T04:41:54.027Z,0.54
2023-04-18T04:42:54.085Z,0.54
2023-04-18T04:43:54.117Z,0.53
2023-04-18T04:44:54.154Z,0.53
2023-04-18T04:45:54.271Z,0.53
2023-04-18T04:46:54.220Z,0.53
2023-04-18T04:47:54.293Z,0.52
2023-04-18T04:48:54.327Z,0.53
2023-04-18T04:49:54.383Z,0.52
2023-04-18T04:50:54.458Z,0.52
2023-04-18T04:51:54.516Z,0.52
2023-04-18T04:52:54.568Z,0.52
2023-04-18T04:53:54.586Z,0.53
2023-04-18T04:54:54.633Z,0.52
2023-04-18T04:55:54.668Z,0.52
2023-04-18T04:56:54.719Z,0.51
2023-04-18T04:57:54.800Z,0.52
2023-04-18T04:58:54.817Z,0.52
2023-04-18T04:59:54.879Z,0.52
2023-04-18T05:01:02.070Z,0.52
2023-04-18T05:01:54.921Z,0.52
2023-04-18T05:02:55.169Z,0.53
2023-04-18T05:03:54.984Z,0.53
2023-04-18T05:04:54.901Z,0.52
2023-04-18T05:05:54.908Z,0.52
2023-04-18T05:06:54.872Z,0.54
2023-04-18T05:07:54.888Z,0.53
2023-04-18T05:08:54.877Z,0.52
2023-04-18T05:09:54.885Z,0.53
2023-04-18T05:10:54.862Z,0.54
2023-04-18T05:11:54.854Z,0.52
2023-04-18T05:12:54.860Z,0.52
2023-04-18T05:13:54.835Z,0.53
2023-04-18T05:14:54.833Z,0.52
2023-04-18T05:15:54.787Z,0.52
2023-04-18T05:16:54.829Z,0.53
2023-04-18T05:17:54.926Z,0.53
2023-04-18T05:18:54.761Z,0.53
2023-04-18T05:19:54.833Z,0.53
2023-04-18T05:20:54.770Z,0.54
2023-04-18T05:21:54.799Z,0.53
2023-04-18T05:22:54.777Z,0.53
2023-04-18T05:23:54.858Z,0.53
2023-04-18T05:24:54.880Z,0.53
2023-04-18T05:25:54.950Z,0.53
2023-04-18T05:26:55.001Z,0.54
2023-04-18T05:27:55.046Z,0.53
2023-04-18T05:28:55.124Z,0.53
2023-04-18T05:29:55.202Z,0.54
2023-04-18T05:30:55.270Z,0.53
2023-04-18T05:31:55.296Z,0.53
2023-04-18T05:32:55.374Z,0.53
2023-04-18T05:33:55.598Z,0.53
2023-04-18T05:34:55.451Z,0.55
2023-04-18T05:35:55.527Z,0.56
2023-04-18T05:36:55.592Z,0.57
2023-04-18T05:37:55.638Z,0.61
2023-04-18T05:38:56.109Z,0.63
2023-04-18T05:39:55.735Z,0.67
2023-04-18T05:40:55.971Z,0.90
2023-04-18T05:41:55.747Z,0.91
2023-04-18T05:42:55.760Z,0.94
2023-04-18T05:44:04.997Z,1.02
2023-04-18T05:44:56.794Z,1.02
2023-04-18T05:46:02.777Z,1.05
2023-04-18T05:46:55.772Z,1.03
2023-04-18T05:47:55.750Z,1.07
2023-04-18T05:48:56.132Z,1.19
2023-04-18T05:49:55.724Z,1.33
2023-04-18T05:50:55.706Z,1.58
2023-04-18T05:51:55.714Z,1.54
2023-04-18T05:52:55.713Z,1.53
2023-04-18T05:53:56.124Z,1.59
2023-04-18T05:54:55.663Z,1.82
2023-04-18T05:55:55.676Z,1.85
2023-04-18T05:56:55.665Z,1.78
2023-04-18T05:57:55.677Z,1.71
2023-04-18T05:58:55.684Z,1.69
2023-04-18T05:59:55.641Z,1.81
2023-04-18T06:00:55.721Z,1.93
2023-04-18T06:01:55.708Z,1.80
2023-04-18T06:02:55.769Z,1.86
2023-04-18T06:03:55.890Z,2.03
2023-04-18T06:04:55.753Z,1.95
2023-04-18T06:05:55.849Z,1.90
2023-04-18T06:06:55.602Z,2.07
2023-04-18T06:07:55.605Z,2.32
2023-04-18T06:08:55.620Z,2.51
2023-04-18T06:09:55.582Z,2.28
2023-04-18T06:10:55.559Z,2.24
2023-04-18T06:11:55.574Z,2.40
2023-04-18T06:12:55.562Z,2.44
2023-04-18T06:13:55.604Z,2.71
2023-04-18T06:14:55.636Z,2.82
2023-04-18T06:15:55.663Z,2.68
2023-04-18T06:16:55.677Z,2.72
2023-04-18T06:17:55.733Z,2.76
2023-04-18T06:18:56.143Z,2.95
2023-04-18T06:19:55.829Z,3.19
2023-04-18T06:20:55.898Z,3.73
2023-04-18T06:21:55.950Z,4.30
2023-04-18T06:22:56.028Z,4.88
2023-04-18T06:23:56.667Z,5.19
2023-04-18T06:24:56.149Z,5.36
2023-04-18T06:25:56.168Z,5.44
2023-04-18T06:26:57.184Z,5.59
2023-04-18T06:27:56.352Z,5.53
2023-04-18T06:28:56.394Z,5.99
2023-04-18T06:29:56.430Z,5.97
2023-04-18T06:30:56.471Z,5.53
2023-04-18T06:31:56.593Z,5.49
2023-04-18T06:32:56.640Z,5.47
2023-04-18T06:33:57.171Z,5.35
2023-04-18T06:34:56.736Z,5.04
2023-04-18T06:35:56.771Z,5.31
2023-04-18T06:36:56.862Z,5.18
2023-04-18T06:37:56.922Z,5.08
2023-04-18T06:38:57.143Z,5.04
2023-04-18T06:39:57.066Z,4.86
2023-04-18T06:40:57.095Z,5.21
2023-04-18T06:41:57.115Z,5.60
2023-04-18T06:42:57.197Z,5.44
2023-04-18T06:44:02.793Z,5.12
2023-04-18T06:44:58.336Z,4.94
2023-04-18T06:45:57.379Z,4.75
2023-04-18T06:46:57.287Z,5.21
2023-04-18T06:47:57.326Z,5.28
2023-04-18T06:48:57.324Z,5.23
2023-04-18T06:49:57.234Z,5.44
2023-04-18T06:50:57.248Z,5.05
2023-04-18T06:51:57.220Z,5.19
2023-04-18T06:52:57.214Z,5.01
2023-04-18T06:53:57.185Z,4.97
2023-04-18T06:54:57.209Z,5.03
2023-04-18T06:55:57.196Z,5.56
2023-04-18T06:56:57.150Z,5.29
2023-04-18T06:57:57.184Z,5.45
2023-04-18T06:58:57.166Z,6.07
2023-04-18T06:59:57.138Z,6.27
2023-04-18T07:00:57.262Z,6.48
2023-04-18T07:01:57.221Z,6.40
2023-04-18T07:02:57.438Z,6.73
2023-04-18T07:03:57.416Z,6.38
2023-04-18T07:04:57.400Z,6.69
2023-04-18T07:05:57.456Z,6.51
2023-04-18T07:06:57.496Z,6.45
2023-04-18T07:07:57.541Z,6.44
2023-04-18T07:08:57.579Z,6.25
2023-04-18T07:09:57.604Z,6.06
2023-04-18T07:10:57.687Z,6.30
2023-04-18T07:11:57.774Z,5.83
2023-04-18T07:12:57.801Z,6.12
2023-04-18T07:13:58.188Z,6.03
2023-04-18T07:14:57.924Z,6.50
2023-04-18T07:15:58.013Z,6.12
2023-04-18T07:16:58.054Z,6.59
2023-04-18T07:17:58.105Z,8.16
2023-04-18T07:18:58.120Z,8.65
2023-04-18T07:19:58.242Z,8.48
2023-04-18T07:20:58.283Z,7.07
2023-04-18T07:21:58.301Z,7.09
2023-04-18T07:22:58.364Z,8.09
2023-04-18T07:23:58.410Z,8.75
2023-04-18T07:24:58.685Z,7.49
2023-04-18T07:25:58.510Z,9.53
2023-04-18T07:26:58.549Z,8.21
2023-04-18T07:27:58.668Z,7.75
2023-04-18T07:28:58.662Z,5.51
2023-04-18T07:29:59.179Z,2.34
2023-04-18T07:30:58.801Z,1.46
2023-04-18T07:31:58.753Z,1.21
2023-04-18T07:32:59.722Z,1.31
2023-04-18T07:33:58.835Z,1.83
2023-04-18T07:34:58.840Z,6.59
2023-04-18T07:35:58.818Z,6.91
2023-04-18T07:36:58.888Z,5.35
2023-04-18T07:37:58.907Z,3.58
2023-04-18T07:38:58.931Z,2.50
2023-04-18T07:39:59.079Z,2.02
2023-04-18T07:40:59.051Z,1.96
2023-04-18T07:41:59.099Z,1.93
2023-04-18T07:42:59.176Z,1.67
2023-04-18T07:43:59.250Z,1.53
2023-04-18T07:44:59.266Z,1.96
2023-04-18T07:45:59.342Z,2.03
2023-04-18T07:46:59.386Z,1.97
2023-04-18T07:47:59.419Z,1.47
2023-04-18T07:48:59.454Z,1.10
2023-04-18T07:49:59.505Z,0.98
2023-04-18T07:50:59.577Z,1.47
2023-04-18T07:51:59.609Z,1.85
2023-04-18T07:53:00.208Z,2.56
2023-04-18T07:53:59.736Z,2.92
2023-04-18T07:54:59.737Z,2.80
2023-04-18T07:55:59.750Z,2.85
2023-04-18T07:56:59.772Z,2.98
2023-04-18T07:57:59.758Z,3.07
2023-04-18T07:58:59.786Z,3.16
2023-04-18T08:00:00.179Z,3.29
2023-04-18T08:00:59.893Z,3.58
2023-04-18T08:01:59.920Z,3.79
2023-04-18T08:02:59.997Z,4.09
2023-04-18T08:03:59.985Z,4.15
2023-04-18T08:05:00.026Z,4.65
2023-04-18T08:06:00.032Z,4.82
2023-04-18T08:07:00.093Z,5.05
2023-04-18T08:08:00.108Z,6.06
2023-04-18T08:09:00.144Z,6.07
2023-04-18T08:10:00.856Z,5.68
2023-04-18T08:11:00.168Z,5.66
2023-04-18T08:12:00.200Z,6.07
2023-04-18T08:13:00.192Z,6.11
2023-04-18T08:14:00.196Z,6.28
2023-04-18T08:15:00.694Z,6.50
2023-04-18T08:16:00.488Z,6.69
2023-04-18T08:17:00.558Z,7.11
2023-04-18T08:18:00.455Z,9.73
2023-04-18T08:19:00.416Z,8.41
2023-04-18T08:20:00.707Z,8.75
2023-04-18T08:21:00.483Z,8.90
2023-04-18T08:22:00.541Z,9.38
2023-04-18T08:24:00.577Z,10.21
2023-04-18T08:25:04.888Z,10.93
2023-04-18T08:26:01.601Z,10.97
2023-04-18T08:27:00.582Z,11.04
2023-04-18T08:28:00.592Z,11.14
2023-04-18T08:29:00.543Z,11.59
2023-04-18T08:30:00.819Z,12.58
2023-04-18T08:31:00.554Z,14.56
2023-04-18T08:32:00.730Z,12.14
2023-04-18T08:33:00.651Z,9.71
2023-04-18T08:34:01.290Z,9.66
2023-04-18T08:35:00.730Z,8.67
2023-04-18T08:36:00.493Z,8.35
2023-04-18T08:37:00.496Z,7.29
2023-04-18T08:38:00.461Z,7.11
2023-04-18T08:39:00.505Z,6.23
2023-04-18T08:40:00.759Z,7.95
2023-04-18T08:41:00.467Z,10.96
2023-04-18T08:42:00.487Z,93.78
2023-04-18T08:43:00.483Z,45.11
2023-04-18T08:44:00.549Z,32.60
2023-04-18T08:45:00.680Z,25.43
2023-04-18T08:46:00.706Z,18.33
2023-04-18T08:47:00.763Z,16.64
2023-04-18T08:48:00.888Z,14.49
2023-04-18T08:49:00.885Z,14.27
2023-04-18T08:50:01.308Z,5.99
2023-04-18T08:51:00.939Z,1.10
2023-04-18T08:52:01.021Z,0.52
2023-04-18T08:53:01.015Z,0.66
2023-04-18T08:54:01.058Z,0.61
2023-04-18T08:55:01.185Z,0.67
2023-04-18T08:56:01.136Z,0.63
2023-04-18T08:57:01.182Z,0.61
2023-04-18T08:58:01.360Z,0.45
2023-04-18T08:59:01.313Z,0.46
2023-04-18T09:00:01.823Z,0.49
2023-04-18T09:01:01.442Z,0.58
2023-04-18T09:02:01.570Z,0.55
2023-04-18T09:03:01.634Z,0.50
2023-04-18T09:04:01.665Z,0.55
2023-04-18T09:05:02.218Z,0.55
2023-04-18T09:06:01.683Z,0.50
2023-04-18T09:07:01.725Z,0.60
2023-04-18T09:08:01.832Z,0.54
2023-04-18T09:09:01.840Z,0.45
2023-04-18T09:10:02.070Z,0.50
2023-04-18T09:11:01.941Z,0.53
2023-04-18T09:12:02.003Z,0.94
2023-04-18T09:13:02.072Z,1.16
2023-04-18T09:14:02.088Z,1.32
2023-04-18T09:15:02.117Z,1.99
2023-04-18T09:16:02.188Z,1.40
2023-04-18T09:17:02.237Z,1.45
2023-04-18T09:18:02.306Z,1.59
2023-04-18T09:19:02.213Z,1.76
2023-04-18T09:20:02.215Z,1.86
2023-04-18T09:21:02.215Z,1.72
2023-04-18T09:22:02.247Z,1.83
2023-04-18T09:23:02.257Z,1.96
2023-04-18T09:24:02.250Z,2.29
2023-04-18T09:25:02.303Z,2.37
2023-04-18T09:26:02.366Z,2.66
2023-04-18T09:27:02.457Z,2.91
2023-04-18T09:28:02.474Z,3.69
2023-04-18T09:29:02.493Z,3.86
2023-04-18T09:30:02.651Z,4.34
2023-04-18T09:31:02.631Z,4.37
2023-04-18T09:32:02.683Z,4.33
2023-04-18T09:33:03.277Z,4.50
2023-04-18T09:34:02.745Z,4.17
2023-04-18T09:35:04.656Z,4.34
2023-04-18T09:36:02.872Z,3.60
2023-04-18T09:37:02.918Z,0.59
2023-04-18T09:38:02.944Z,0.57
2023-04-18T09:39:02.986Z,0.69
2023-04-18T09:40:03.087Z,1.01
2023-04-18T09:41:03.093Z,1.53
2023-04-18T09:42:03.131Z,2.10
2023-04-18T09:43:03.143Z,2.45
2023-04-18T09:44:03.163Z,1.69
2023-04-18T09:45:03.251Z,1.23
2023-04-18T09:46:03.186Z,0.97
2023-04-18T09:47:03.228Z,0.64
2023-04-18T09:48:03.364Z,0.61
2023-04-18T09:49:03.338Z,0.66
2023-04-18T09:50:04.263Z,1.08
2023-04-18T09:51:03.460Z,1.30
2023-04-18T09:52:03.448Z,1.74
2023-04-18T09:53:03.485Z,2.34
2023-04-18T09:54:03.518Z,2.91
2023-04-18T09:55:03.538Z,3.53
2023-04-18T09:56:03.749Z,3.86
2023-04-18T09:57:03.558Z,4.34
2023-04-18T09:58:03.549Z,4.92
2023-04-18T09:59:03.608Z,5.47
2023-04-18T10:00:03.721Z,6.06
2023-04-18T10:01:03.798Z,6.34
2023-04-18T10:02:03.911Z,6.77
2023-04-18T10:03:03.924Z,7.01
2023-04-18T10:04:04.808Z,7.55
2023-04-18T10:05:04.064Z,7.86
2023-04-18T10:06:03.916Z,8.51
2023-04-18T10:07:03.961Z,8.90
2023-04-18T10:08:04.139Z,10.06
2023-04-18T10:09:03.983Z,10.06
2023-04-18T10:10:03.997Z,10.99
2023-04-18T10:11:03.995Z,11.46
2023-04-18T10:12:04.028Z,11.59
2023-04-18T10:13:04.016Z,12.19
2023-04-18T10:14:04.019Z,12.16
2023-04-18T10:15:04.065Z,12.47
2023-04-18T10:16:04.245Z,12.35
2023-04-18T10:17:04.071Z,12.37
2023-04-18T10:18:06.250Z,12.15
2023-04-18T10:19:04.086Z,9.74
2023-04-18T10:20:04.108Z,10.05
2023-04-18T10:21:04.311Z,10.53
2023-04-18T10:22:04.098Z,10.65
2023-04-18T10:23:04.136Z,11.02
2023-04-18T10:24:04.168Z,12.05
2023-04-18T10:25:04.144Z,10.77
2023-04-18T10:26:04.120Z,11.42
2023-04-18T10:27:04.121Z,11.52
2023-04-18T10:28:04.129Z,12.64
2023-04-18T10:29:04.122Z,12.61
2023-04-18T10:30:04.149Z,12.42
2023-04-18T10:31:04.324Z,12.25
2023-04-18T10:32:04.159Z,13.01
2023-04-18T10:33:04.911Z,14.06
2023-04-18T10:34:05.959Z,15.02
2023-04-18T10:35:04.194Z,16.16
2023-04-18T10:36:04.313Z,17.82
2023-04-18T10:37:04.206Z,17.73
2023-04-18T10:38:04.288Z,19.37
2023-04-18T10:39:04.394Z,19.10
2023-04-18T10:40:04.544Z,20.19
2023-04-18T10:41:04.753Z,20.13
2023-04-18T10:42:04.523Z,19.51
2023-04-18T10:43:04.579Z,17.12
2023-04-18T10:45:00.195Z,0.50
2023-04-18T10:45:59.971Z,0.50
2023-04-18T10:46:59.992Z,0.50
2023-04-18T10:47:59.991Z,0.50
2023-04-18T10:48:59.963Z,0.50
2023-04-18T10:49:59.988Z,0.34
2023-04-18T10:50:59.971Z,0.34
2023-04-18T10:51:59.990Z,0.34
2023-04-18T10:52:59.954Z,0.34
2023-04-18T10:53:59.913Z,0.34
2023-04-18T10:54:59.940Z,0.34
2023-04-18T10:56:00.230Z,0.56
2023-04-18T10:56:59.929Z,0.80
2023-04-18T10:57:59.917Z,0.93
2023-04-18T10:58:59.876Z,1.19
2023-04-18T10:59:59.978Z,1.27
2023-04-18T11:01:01.040Z,1.30
2023-04-18T11:01:59.926Z,1.39
2023-04-18T11:02:59.937Z,1.60
2023-04-18T11:03:59.975Z,1.83
2023-04-18T11:04:59.860Z,2.23
2023-04-18T11:05:59.875Z,2.82
2023-04-18T11:06:59.834Z,3.82
2023-04-18T11:07:59.888Z,4.18
2023-04-18T11:08:59.881Z,3.58
2023-04-18T11:09:59.828Z,2.15
2023-04-18T11:10:59.817Z,3.30
2023-04-18T11:11:59.819Z,3.32
2023-04-18T11:12:59.824Z,4.21
2023-04-18T11:13:59.815Z,4.59
2023-04-18T11:14:59.862Z,5.25
2023-04-18T11:16:00.589Z,5.51
2023-04-18T11:16:59.919Z,6.26
2023-04-18T11:17:59.846Z,6.45
2023-04-18T11:18:59.767Z,6.89
2023-04-18T11:19:59.762Z,7.13
2023-04-18T11:20:59.783Z,7.35
2023-04-18T11:21:59.853Z,7.63
2023-04-18T11:22:59.774Z,7.53
2023-04-18T11:23:59.720Z,7.75
2023-04-18T11:24:59.724Z,8.05
2023-04-18T11:25:59.814Z,8.03
2023-04-18T11:26:59.712Z,8.46
2023-04-18T11:27:59.722Z,8.83
2023-04-18T11:28:59.743Z,8.92
2023-04-18T11:29:59.722Z,9.02
2023-04-18T11:31:00.508Z,9.10
2023-04-18T11:31:59.819Z,8.34
2023-04-18T11:32:59.785Z,8.14
2023-04-18T11:33:59.758Z,9.05
2023-04-18T11:34:59.676Z,7.93
2023-04-18T11:35:59.771Z,5.70
2023-04-18T11:36:59.763Z,4.70
2023-04-18T11:38:00.204Z,3.90
2023-04-18T11:38:59.683Z,3.62
2023-04-18T11:39:59.628Z,4.05
2023-04-18T11:40:59.641Z,4.28
2023-04-18T11:41:59.721Z,4.65
2023-04-18T11:42:59.676Z,4.92
2023-04-18T11:43:59.614Z,5.07
2023-04-18T11:44:59.587Z,5.55
2023-04-18T11:45:59.857Z,5.60
2023-04-18T11:46:59.762Z,5.96
2023-04-18T11:47:59.669Z,5.20
2023-04-18T11:48:59.583Z,5.53
2023-04-18T11:49:59.567Z,5.53
2023-04-18T11:50:59.580Z,5.16
2023-04-18T11:51:59.538Z,5.51
2023-04-18T11:52:59.531Z,5.51
2023-04-18T11:53:59.550Z,5.60
2023-04-18T11:54:59.534Z,5.64
2023-04-18T11:55:59.529Z,5.73
2023-04-18T11:56:59.518Z,5.50
2023-04-18T11:57:59.601Z,5.69
2023-04-18T11:58:59.494Z,5.76
2023-04-18T11:59:59.570Z,6.05
2023-04-18T12:00:59.604Z,6.04
2023-04-18T12:02:08.844Z,5.33
2023-04-18T12:03:00.583Z,4.86
2023-04-18T12:03:59.742Z,4.98
2023-04-18T12:04:59.711Z,5.19
2023-04-18T12:05:59.767Z,3.98
2023-04-18T12:06:59.461Z,3.84
2023-04-18T12:07:59.460Z,4.47
2023-04-18T12:08:59.442Z,4.80
2023-04-18T12:09:59.422Z,4.30
2023-04-18T12:10:59.410Z,4.21
2023-04-18T12:11:59.412Z,4.31
2023-04-18T12:12:59.418Z,4.58
2023-04-18T12:13:59.410Z,4.59
2023-04-18T12:14:59.389Z,4.63
2023-04-18T12:15:59.465Z,4.52
2023-04-18T12:16:59.404Z,4.55
2023-04-18T12:17:59.458Z,4.39
2023-04-18T12:18:59.412Z,4.55
2023-04-18T12:19:59.420Z,4.72
2023-04-18T12:20:59.432Z,4.50
2023-04-18T12:21:59.470Z,4.69
2023-04-18T12:22:59.471Z,4.72
2023-04-18T12:23:59.451Z,4.64
2023-04-18T12:24:59.501Z,4.76
2023-04-18T12:25:59.513Z,4.75
2023-04-18T12:26:59.499Z,4.87
2023-04-18T12:27:59.500Z,4.32
2023-04-18T12:28:59.506Z,3.14
2023-04-18T12:29:59.517Z,1.92
2023-04-18T12:30:59.621Z,1.48
2023-04-18T12:31:59.589Z,1.24
2023-04-18T12:32:59.541Z,1.03
2023-04-18T12:33:59.565Z,0.72
2023-04-18T12:34:59.568Z,0.81
2023-04-18T12:35:59.589Z,0.92
2023-04-18T12:36:59.620Z,0.92
2023-04-18T12:37:59.664Z,1.44
2023-04-18T12:38:59.699Z,1.37
2023-04-18T12:39:59.684Z,1.17
2023-04-18T12:40:59.729Z,1.35
2023-04-18T12:41:59.757Z,1.54
2023-04-18T12:43:01.476Z,1.89
2023-04-18T12:43:59.794Z,2.14
2023-04-18T12:44:59.757Z,2.14
2023-04-18T12:45:59.754Z,2.66
2023-04-18T12:46:59.897Z,2.80
2023-04-18T12:47:59.821Z,2.99
2023-04-18T12:48:59.750Z,3.46
2023-04-18T12:49:59.698Z,4.30
2023-04-18T12:50:59.746Z,5.17
2023-04-18T12:52:00.481Z,6.07
2023-04-18T12:52:59.687Z,6.62
2023-04-18T12:53:59.705Z,6.79
2023-04-18T12:54:59.731Z,6.98
2023-04-18T12:55:59.696Z,7.10
2023-04-18T12:56:59.696Z,7.30
2023-04-18T12:57:59.708Z,7.70
2023-04-18T12:58:59.716Z,8.00
2023-04-18T12:59:59.662Z,7.96
2023-04-18T13:00:59.669Z,8.27
2023-04-18T13:01:59.742Z,8.25
2023-04-18T13:02:59.877Z,8.02
2023-04-18T13:04:10.633Z,8.09
2023-04-18T13:05:00.777Z,8.12
2023-04-18T13:05:59.665Z,8.20
2023-04-18T13:06:59.662Z,8.34
2023-04-18T13:08:15.372Z,8.39
2023-04-18T13:09:00.597Z,8.13
2023-04-18T13:09:59.614Z,8.19
2023-04-18T13:10:59.591Z,8.18
2023-04-18T13:11:59.595Z,8.22
2023-04-18T13:12:59.567Z,8.68
2023-04-18T13:13:59.617Z,9.02
2023-04-18T13:14:59.560Z,8.86
2023-04-18T13:15:59.614Z,8.76
2023-04-18T13:16:59.695Z,9.13
2023-04-18T13:17:59.558Z,9.49
2023-04-18T13:18:59.536Z,8.98
2023-04-18T13:19:59.562Z,9.25